sensor_id;sensor_type;location;lat;lon;timestamp;P1;durP1;ratioP1;P2;durP2;ratioP2
18399;SDS011;9326;49.468;11.008;2022-11-20T00:01:24;28.17;;;19.90;;
18399;SDS011;9326;49.468;11.008;2022-11-20T00:03:52;26.03;;;19.93;;
18399;SDS011;9326;49.468;11.008;2022-11-20T00:06:19;27.43;;;20.40;;
18399;SDS011;9326;49.468;11.008;2022-11-20T00:08:48;28.50;;;19.93;;
18399;SDS011;9326;49.468;11.008;2022-11-20T00:11:16;27.17;;;19.90;;
18399;SDS011;9326;49.468;11.008;2022-11-20T00:13:44;28.30;;;19.40;;
18399;SDS011;9326;49.468;11.008;2022-11-20T00:16:13;25.70;;;19.47;;
18399;SDS011;9326;49.468;11.008;2022-11-20T00:18:40;26.50;;;19.07;;
18399;SDS011;9326;49.468;11.008;2022-11-20T00:21:09;25.60;;;19.33;;
18399;SDS011;9326;49.468;11.008;2022-11-20T00:23:38;25.77;;;19.10;;
18399;SDS011;9326;49.468;11.008;2022-11-20T00:26:07;26.97;;;19.20;;
18399;SDS011;9326;49.468;11.008;2022-11-20T00:28:35;25.80;;;18.70;;
18399;SDS011;9326;49.468;11.008;2022-11-20T00:31:03;24.07;;;18.23;;
18399;SDS011;9326;49.468;11.008;2022-11-20T00:33:31;24.07;;;17.83;;
18399;SDS011;9326;49.468;11.008;2022-11-20T00:36:01;25.23;;;18.57;;
18399;SDS011;9326;49.468;11.008;2022-11-20T00:38:29;25.77;;;18.33;;
18399;SDS011;9326;49.468;11.008;2022-11-20T00:40:56;27.13;;;18.80;;
18399;SDS011;9326;49.468;11.008;2022-11-20T00:43:25;23.53;;;16.40;;
18399;SDS011;9326;49.468;11.008;2022-11-20T00:45:56;27.07;;;15.57;;
18399;SDS011;9326;49.468;11.008;2022-11-20T00:48:24;22.27;;;15.47;;
18399;SDS011;9326;49.468;11.008;2022-11-20T00:50:51;25.80;;;15.37;;
18399;SDS011;9326;49.468;11.008;2022-11-20T00:53:18;24.07;;;16.67;;
18399;SDS011;9326;49.468;11.008;2022-11-20T00:55:52;24.63;;;16.93;;
18399;SDS011;9326;49.468;11.008;2022-11-20T00:58:19;27.57;;;19.47;;
18399;SDS011;9326;49.468;11.008;2022-11-20T06:02:00;30.40;;;18.60;;
18399;SDS011;9326;49.468;11.008;2022-11-20T06:04:33;32.60;;;20.93;;
18399;SDS011;9326;49.468;11.008;2022-11-20T06:07:08;32.63;;;20.27;;
18399;SDS011;9326;49.468;11.008;2022-11-20T06:09:39;33.30;;;19.93;;
18399;SDS011;9326;49.468;11.008;2022-11-20T06:12:09;32.83;;;19.93;;
18399;SDS011;9326;49.468;11.008;2022-11-20T06:14:36;31.83;;;18.93;;
18399;SDS011;9326;49.468;11.008;2022-11-20T06:17:05;29.63;;;18.90;;
18399;SDS011;9326;49.468;11.008;2022-11-20T06:19:32;29.23;;;18.83;;
18399;SDS011;9326;49.468;11.008;2022-11-20T06:22:00;31.47;;;19.30;;
18399;SDS011;9326;49.468;11.008;2022-11-20T06:24:27;28.97;;;18.10;;
18399;SDS011;9326;49.468;11.008;2022-11-20T06:26:54;30.90;;;19.03;;
18399;SDS011;9326;49.468;11.008;2022-11-20T06:29:21;27.77;;;18.03;;
18399;SDS011;9326;49.468;11.008;2022-11-20T06:31:48;28.57;;;18.10;;
18399;SDS011;9326;49.468;11.008;2022-11-20T06:34:17;30.17;;;18.23;;
18399;SDS011;9326;49.468;11.008;2022-11-20T06:36:44;30.03;;;18.03;;
18399;SDS011;9326;49.468;11.008;2022-11-20T06:39:11;27.90;;;17.47;;
18399;SDS011;9326;49.468;11.008;2022-11-20T06:41:38;27.77;;;17.87;;
18399;SDS011;9326;49.468;11.008;2022-11-20T06:44:05;28.60;;;18.10;;
18399;SDS011;9326;49.468;11.008;2022-11-20T06:46:33;30.90;;;18.90;;
18399;SDS011;9326;49.468;11.008;2022-11-20T06:49:00;31.83;;;19.13;;
18399;SDS011;9326;49.468;11.008;2022-11-20T06:51:29;25.23;;;17.10;;
18399;SDS011;9326;49.468;11.008;2022-11-20T06:53:56;25.97;;;17.37;;
18399;SDS011;9326;49.468;11.008;2022-11-20T06:56:23;30.87;;;18.00;;
18399;SDS011;9326;49.468;11.008;2022-11-20T06:58:50;27.07;;;17.53;;
18399;SDS011;9326;49.468;11.008;2022-11-20T07:01:17;25.23;;;16.80;;
18399;SDS011;9326;49.468;11.008;2022-11-20T07:03:44;27.77;;;17.17;;
18399;SDS011;9326;49.468;11.008;2022-11-20T07:06:11;28.47;;;17.47;;
18399;SDS011;9326;49.468;11.008;2022-11-20T07:08:40;27.90;;;17.63;;
18399;SDS011;9326;49.468;11.008;2022-11-20T07:11:07;26.87;;;16.77;;
18399;SDS011;9326;49.468;11.008;2022-11-20T07:13:34;26.57;;;17.23;;
18399;SDS011;9326;49.468;11.008;2022-11-20T07:16:02;27.97;;;17.30;;
18399;SDS011;9326;49.468;11.008;2022-11-20T07:18:29;26.40;;;17.03;;
18399;SDS011;9326;49.468;11.008;2022-11-20T07:20:59;25.07;;;16.17;;
18399;SDS011;9326;49.468;11.008;2022-11-20T07:23:26;22.60;;;15.70;;
18399;SDS011;9326;49.468;11.008;2022-11-20T07:25:54;25.37;;;16.50;;
18399;SDS011;9326;49.468;11.008;2022-11-20T07:28:22;26.67;;;17.03;;
18399;SDS011;9326;49.468;11.008;2022-11-20T07:30:49;25.93;;;17.20;;
18399;SDS011;9326;49.468;11.008;2022-11-20T07:33:16;26.00;;;16.90;;
18399;SDS011;9326;49.468;11.008;2022-11-20T07:35:44;26.27;;;16.57;;
18399;SDS011;9326;49.468;11.008;2022-11-20T07:38:11;28.57;;;18.13;;
18399;SDS011;9326;49.468;11.008;2022-11-20T07:40:39;30.67;;;17.63;;
18399;SDS011;9326;49.468;11.008;2022-11-20T07:43:07;26.67;;;17.50;;
18399;SDS011;9326;49.468;11.008;2022-11-20T07:45:35;28.33;;;18.20;;
18399;SDS011;9326;49.468;11.008;2022-11-20T07:48:02;24.50;;;16.70;;
18399;SDS011;9326;49.468;11.008;2022-11-20T07:50:29;25.07;;;16.67;;
18399;SDS011;9326;49.468;11.008;2022-11-20T07:53:02;27.87;;;17.07;;
18399;SDS011;9326;49.468;11.008;2022-11-20T07:55:30;26.17;;;16.93;;
18399;SDS011;9326;49.468;11.008;2022-11-20T07:57:57;29.33;;;19.17;;
18399;SDS011;9326;49.468;11.008;2022-11-20T08:00:26;29.60;;;18.10;;
18399;SDS011;9326;49.468;11.008;2022-11-20T08:02:53;26.47;;;17.50;;
18399;SDS011;9326;49.468;11.008;2022-11-20T08:05:20;27.23;;;17.50;;
18399;SDS011;9326;49.468;11.008;2022-11-20T08:07:53;28.83;;;17.43;;
18399;SDS011;9326;49.468;11.008;2022-11-20T08:10:26;27.03;;;17.53;;
18399;SDS011;9326;49.468;11.008;2022-11-20T08:13:00;25.83;;;17.60;;
18399;SDS011;9326;49.468;11.008;2022-11-20T08:15:49;27.57;;;17.30;;
18399;SDS011;9326;49.468;11.008;2022-11-20T08:18:16;25.93;;;16.57;;
18399;SDS011;9326;49.468;11.008;2022-11-20T08:20:44;26.70;;;17.33;;
18399;SDS011;9326;49.468;11.008;2022-11-20T08:23:11;26.97;;;17.73;;
18399;SDS011;9326;49.468;11.008;2022-11-20T08:25:39;27.07;;;17.73;;
18399;SDS011;9326;49.468;11.008;2022-11-20T08:28:07;27.37;;;17.80;;
18399;SDS011;9326;49.468;11.008;2022-11-20T08:30:34;26.47;;;16.60;;
18399;SDS011;9326;49.468;11.008;2022-11-20T08:33:05;27.27;;;17.27;;
18399;SDS011;9326;49.468;11.008;2022-11-20T08:35:33;26.60;;;16.67;;
18399;SDS011;9326;49.468;11.008;2022-11-20T08:38:01;26.93;;;17.63;;
18399;SDS011;9326;49.468;11.008;2022-11-20T08:40:31;26.93;;;17.43;;
18399;SDS011;9326;49.468;11.008;2022-11-20T08:42:58;27.83;;;17.43;;
18399;SDS011;9326;49.468;11.008;2022-11-20T08:45:27;27.80;;;18.30;;
18399;SDS011;9326;49.468;11.008;2022-11-20T08:47:59;27.53;;;18.60;;
18399;SDS011;9326;49.468;11.008;2022-11-20T08:50:28;30.13;;;19.87;;
18399;SDS011;9326;49.468;11.008;2022-11-20T08:53:01;30.43;;;19.67;;
18399;SDS011;9326;49.468;11.008;2022-11-20T08:55:28;27.67;;;18.30;;
18399;SDS011;9326;49.468;11.008;2022-11-20T08:57:56;25.27;;;17.83;;
18399;SDS011;9326;49.468;11.008;2022-11-20T09:00:23;28.23;;;19.03;;
18399;SDS011;9326;49.468;11.008;2022-11-20T09:02:50;26.30;;;19.13;;
18399;SDS011;9326;49.468;11.008;2022-11-20T09:05:17;26.60;;;18.57;;
18399;SDS011;9326;49.468;11.008;2022-11-20T09:07:46;26.00;;;17.47;;
18399;SDS011;9326;49.468;11.008;2022-11-20T09:10:13;24.90;;;17.83;;
18399;SDS011;9326;49.468;11.008;2022-11-20T09:12:40;30.40;;;21.40;;
18399;SDS011;9326;49.468;11.008;2022-11-20T09:15:07;26.93;;;19.30;;
18399;SDS011;9326;49.468;11.008;2022-11-20T09:17:35;25.50;;;17.47;;
18399;SDS011;9326;49.468;11.008;2022-11-20T09:20:02;24.13;;;17.47;;
18399;SDS011;9326;49.468;11.008;2022-11-20T09:22:30;26.27;;;17.67;;
18399;SDS011;9326;49.468;11.008;2022-11-20T09:24:59;21.53;;;16.07;;
18399;SDS011;9326;49.468;11.008;2022-11-20T09:27:26;23.57;;;16.57;;
18399;SDS011;9326;49.468;11.008;2022-11-20T09:29:53;22.87;;;17.07;;
18399;SDS011;9326;49.468;11.008;2022-11-20T09:32:20;28.07;;;16.97;;
18399;SDS011;9326;49.468;11.008;2022-11-20T09:34:47;26.13;;;17.27;;
18399;SDS011;9326;49.468;11.008;2022-11-20T09:37:14;28.60;;;18.33;;
18399;SDS011;9326;49.468;11.008;2022-11-20T09:39:41;24.53;;;17.50;;
18399;SDS011;9326;49.468;11.008;2022-11-20T09:42:17;26.07;;;16.87;;
18399;SDS011;9326;49.468;11.008;2022-11-20T09:45:00;25.63;;;17.80;;
18399;SDS011;9326;49.468;11.008;2022-11-20T09:47:32;27.77;;;19.07;;
18399;SDS011;9326;49.468;11.008;2022-11-20T09:50:15;25.27;;;18.73;;
18399;SDS011;9326;49.468;11.008;2022-11-20T09:52:45;29.57;;;19.77;;
18399;SDS011;9326;49.468;11.008;2022-11-20T09:55:16;26.07;;;18.80;;
18399;SDS011;9326;49.468;11.008;2022-11-20T09:57:45;25.93;;;18.03;;
18399;SDS011;9326;49.468;11.008;2022-11-20T10:00:14;30.33;;;19.17;;
18399;SDS011;9326;49.468;11.008;2022-11-20T10:02:42;34.93;;;24.70;;
18399;SDS011;9326;49.468;11.008;2022-11-20T10:05:12;26.47;;;18.23;;
18399;SDS011;9326;49.468;11.008;2022-11-20T10:07:43;35.10;;;24.30;;
18399;SDS011;9326;49.468;11.008;2022-11-20T10:10:14;31.10;;;21.53;;
18399;SDS011;9326;49.468;11.008;2022-11-20T10:12:46;32.07;;;21.73;;
18399;SDS011;9326;49.468;11.008;2022-11-20T10:15:21;31.40;;;20.50;;
18399;SDS011;9326;49.468;11.008;2022-11-20T10:17:59;31.07;;;18.60;;
18399;SDS011;9326;49.468;11.008;2022-11-20T10:20:34;29.60;;;20.50;;
18399;SDS011;9326;49.468;11.008;2022-11-20T10:23:12;41.83;;;26.97;;
18399;SDS011;9326;49.468;11.008;2022-11-20T10:25:43;31.70;;;19.83;;
18399;SDS011;9326;49.468;11.008;2022-11-20T10:28:20;32.37;;;23.50;;
18399;SDS011;9326;49.468;11.008;2022-11-20T10:30:51;26.70;;;17.67;;
18399;SDS011;9326;49.468;11.008;2022-11-20T10:33:22;31.17;;;21.27;;
18399;SDS011;9326;49.468;11.008;2022-11-20T10:35:50;29.63;;;19.10;;
18399;SDS011;9326;49.468;11.008;2022-11-20T10:38:21;28.67;;;19.83;;
18399;SDS011;9326;49.468;11.008;2022-11-20T10:40:49;31.73;;;20.83;;
18399;SDS011;9326;49.468;11.008;2022-11-20T10:43:18;35.83;;;22.97;;
18399;SDS011;9326;49.468;11.008;2022-11-20T10:45:52;33.57;;;23.20;;
18399;SDS011;9326;49.468;11.008;2022-11-20T10:48:21;33.10;;;22.83;;
18399;SDS011;9326;49.468;11.008;2022-11-20T10:50:59;36.70;;;22.67;;
18399;SDS011;9326;49.468;11.008;2022-11-20T10:53:35;36.50;;;22.97;;
18399;SDS011;9326;49.468;11.008;2022-11-20T10:56:05;37.53;;;24.77;;
18399;SDS011;9326;49.468;11.008;2022-11-20T10:58:35;37.13;;;24.33;;
18399;SDS011;9326;49.468;11.008;2022-11-20T11:01:06;39.93;;;25.60;;
18399;SDS011;9326;49.468;11.008;2022-11-20T11:03:40;40.00;;;27.20;;
18399;SDS011;9326;49.468;11.008;2022-11-20T11:06:12;36.87;;;24.60;;
18399;SDS011;9326;49.468;11.008;2022-11-20T11:08:41;35.57;;;23.67;;
18399;SDS011;9326;49.468;11.008;2022-11-20T11:11:14;32.13;;;23.10;;
18399;SDS011;9326;49.468;11.008;2022-11-20T11:13:44;38.50;;;26.20;;
18399;SDS011;9326;49.468;11.008;2022-11-20T11:16:17;35.23;;;23.97;;
18399;SDS011;9326;49.468;11.008;2022-11-20T11:18:46;37.83;;;24.00;;
18399;SDS011;9326;49.468;11.008;2022-11-20T11:21:13;24.10;;;16.00;;
18399;SDS011;9326;49.468;11.008;2022-11-20T11:23:48;22.67;;;14.73;;
18399;SDS011;9326;49.468;11.008;2022-11-20T11:26:23;24.27;;;17.73;;
18399;SDS011;9326;49.468;11.008;2022-11-20T11:28:54;25.70;;;17.07;;
18399;SDS011;9326;49.468;11.008;2022-11-20T11:31:23;22.80;;;16.17;;
18399;SDS011;9326;49.468;11.008;2022-11-20T11:33:50;27.40;;;18.83;;
18399;SDS011;9326;49.468;11.008;2022-11-20T11:36:18;26.30;;;17.80;;
18399;SDS011;9326;49.468;11.008;2022-11-20T11:38:48;25.37;;;17.03;;
18399;SDS011;9326;49.468;11.008;2022-11-20T11:41:19;26.87;;;16.70;;
18399;SDS011;9326;49.468;11.008;2022-11-20T11:43:49;23.47;;;17.00;;
18399;SDS011;9326;49.468;11.008;2022-11-20T11:46:37;25.63;;;16.33;;
18399;SDS011;9326;49.468;11.008;2022-11-20T11:49:13;23.27;;;16.20;;
18399;SDS011;9326;49.468;11.008;2022-11-20T11:51:41;22.87;;;15.37;;
18399;SDS011;9326;49.468;11.008;2022-11-20T11:54:14;21.70;;;15.00;;
18399;SDS011;9326;49.468;11.008;2022-11-20T11:56:42;21.13;;;14.70;;
18399;SDS011;9326;49.468;11.008;2022-11-20T11:59:11;21.93;;;14.40;;
18399;SDS011;9326;49.468;11.008;2022-11-20T12:01:43;19.97;;;15.17;;
18399;SDS011;9326;49.468;11.008;2022-11-20T12:04:13;23.90;;;16.93;;
18399;SDS011;9326;49.468;11.008;2022-11-20T12:06:44;21.00;;;16.33;;
18399;SDS011;9326;49.468;11.008;2022-11-20T12:09:12;23.07;;;15.43;;
18399;SDS011;9326;49.468;11.008;2022-11-20T12:11:42;19.97;;;15.13;;
18399;SDS011;9326;49.468;11.008;2022-11-20T12:14:12;22.93;;;16.97;;
18399;SDS011;9326;49.468;11.008;2022-11-20T12:16:42;23.37;;;16.30;;
18399;SDS011;9326;49.468;11.008;2022-11-20T12:19:10;22.17;;;16.00;;
18399;SDS011;9326;49.468;11.008;2022-11-20T12:21:42;22.67;;;15.80;;
18399;SDS011;9326;49.468;11.008;2022-11-20T12:26:58;21.03;;;15.13;;
18399;SDS011;9326;49.468;11.008;2022-11-20T12:29:32;16.57;;;12.73;;
18399;SDS011;9326;49.468;11.008;2022-11-20T12:32:10;14.80;;;12.27;;
18399;SDS011;9326;49.468;11.008;2022-11-20T12:34:44;17.40;;;14.20;;
18399;SDS011;9326;49.468;11.008;2022-11-20T12:37:17;20.40;;;17.60;;
18399;SDS011;9326;49.468;11.008;2022-11-20T12:39:49;19.57;;;15.13;;
18399;SDS011;9326;49.468;11.008;2022-11-20T12:42:23;14.13;;;11.60;;
18399;SDS011;9326;49.468;11.008;2022-11-20T12:45:21;14.80;;;11.80;;
18399;SDS011;9326;49.468;11.008;2022-11-20T12:47:54;18.90;;;15.63;;
18399;SDS011;9326;49.468;11.008;2022-11-20T12:50:28;22.40;;;17.73;;
18399;SDS011;9326;49.468;11.008;2022-11-20T12:52:58;14.50;;;11.97;;
18399;SDS011;9326;49.468;11.008;2022-11-20T12:55:31;14.50;;;11.70;;
18399;SDS011;9326;49.468;11.008;2022-11-20T12:58:00;13.77;;;11.10;;
18399;SDS011;9326;49.468;11.008;2022-11-20T13:00:31;13.43;;;10.03;;
18399;SDS011;9326;49.468;11.008;2022-11-20T13:03:09;11.07;;;8.80;;
18399;SDS011;9326;49.468;11.008;2022-11-20T13:05:43;12.60;;;9.70;;
18399;SDS011;9326;49.468;11.008;2022-11-20T13:08:16;10.90;;;9.67;;
18399;SDS011;9326;49.468;11.008;2022-11-20T13:10:45;25.77;;;19.13;;
18399;SDS011;9326;49.468;11.008;2022-11-20T13:13:17;24.10;;;17.80;;
18399;SDS011;9326;49.468;11.008;2022-11-20T13:15:49;19.13;;;15.30;;
18399;SDS011;9326;49.468;11.008;2022-11-20T13:18:19;16.57;;;12.33;;
18399;SDS011;9326;49.468;11.008;2022-11-20T13:20:46;16.57;;;13.10;;
18399;SDS011;9326;49.468;11.008;2022-11-20T13:23:22;16.20;;;12.50;;
18399;SDS011;9326;49.468;11.008;2022-11-20T13:25:50;15.10;;;11.73;;
18399;SDS011;9326;49.468;11.008;2022-11-20T13:28:26;14.83;;;12.00;;
18399;SDS011;9326;49.468;11.008;2022-11-20T13:30:54;16.60;;;12.53;;
18399;SDS011;9326;49.468;11.008;2022-11-20T13:33:25;17.20;;;13.37;;
18399;SDS011;9326;49.468;11.008;2022-11-20T13:35:55;16.03;;;12.90;;
18399;SDS011;9326;49.468;11.008;2022-11-20T13:38:22;15.37;;;12.70;;
18399;SDS011;9326;49.468;11.008;2022-11-20T13:40:51;16.13;;;12.40;;
18399;SDS011;9326;49.468;11.008;2022-11-20T13:43:21;13.40;;;10.93;;
18399;SDS011;9326;49.468;11.008;2022-11-20T13:45:55;15.23;;;11.43;;
18399;SDS011;9326;49.468;11.008;2022-11-20T13:48:25;13.87;;;11.47;;
18399;SDS011;9326;49.468;11.008;2022-11-20T13:51:03;13.73;;;10.93;;
18399;SDS011;9326;49.468;11.008;2022-11-20T13:53:36;13.83;;;11.17;;
18399;SDS011;9326;49.468;11.008;2022-11-20T13:56:07;14.27;;;11.53;;
18399;SDS011;9326;49.468;11.008;2022-11-20T13:58:44;12.37;;;11.00;;
18399;SDS011;9326;49.468;11.008;2022-11-20T14:01:16;17.23;;;12.80;;
18399;SDS011;9326;49.468;11.008;2022-11-20T14:03:45;16.40;;;11.93;;
18399;SDS011;9326;49.468;11.008;2022-11-20T14:06:14;15.27;;;12.23;;
18399;SDS011;9326;49.468;11.008;2022-11-20T14:08:47;14.03;;;10.93;;
18399;SDS011;9326;49.468;11.008;2022-11-20T14:11:16;13.43;;;11.30;;
18399;SDS011;9326;49.468;11.008;2022-11-20T14:13:57;13.50;;;10.73;;
18399;SDS011;9326;49.468;11.008;2022-11-20T14:16:25;14.37;;;11.37;;
18399;SDS011;9326;49.468;11.008;2022-11-20T14:18:54;14.30;;;10.77;;
18399;SDS011;9326;49.468;11.008;2022-11-20T14:21:25;14.47;;;11.50;;
18399;SDS011;9326;49.468;11.008;2022-11-20T14:23:53;13.17;;;10.97;;
18399;SDS011;9326;49.468;11.008;2022-11-20T14:26:21;14.27;;;11.13;;
18399;SDS011;9326;49.468;11.008;2022-11-20T14:28:48;15.27;;;12.20;;
18399;SDS011;9326;49.468;11.008;2022-11-20T14:31:18;16.27;;;12.13;;
18399;SDS011;9326;49.468;11.008;2022-11-20T14:33:47;14.80;;;12.73;;
18399;SDS011;9326;49.468;11.008;2022-11-20T14:36:18;13.40;;;11.03;;
18399;SDS011;9326;49.468;11.008;2022-11-20T14:38:46;13.57;;;10.93;;
18399;SDS011;9326;49.468;11.008;2022-11-20T14:41:17;17.10;;;13.30;;
18399;SDS011;9326;49.468;11.008;2022-11-20T14:43:45;17.30;;;12.50;;
18399;SDS011;9326;49.468;11.008;2022-11-20T14:46:12;14.83;;;12.37;;
18399;SDS011;9326;49.468;11.008;2022-11-20T14:48:41;14.13;;;11.37;;
18399;SDS011;9326;49.468;11.008;2022-11-20T14:51:10;16.53;;;14.47;;
18399;SDS011;9326;49.468;11.008;2022-11-20T14:53:38;12.07;;;10.77;;
18399;SDS011;9326;49.468;11.008;2022-11-20T14:56:06;13.10;;;11.50;;
18399;SDS011;9326;49.468;11.008;2022-11-20T14:58:34;14.07;;;10.67;;
18399;SDS011;9326;49.468;11.008;2022-11-20T15:01:02;14.00;;;11.60;;
18399;SDS011;9326;49.468;11.008;2022-11-20T15:03:33;16.27;;;12.00;;
18399;SDS011;9326;49.468;11.008;2022-11-20T15:06:01;16.70;;;12.63;;
18399;SDS011;9326;49.468;11.008;2022-11-20T15:08:29;15.83;;;11.97;;
18399;SDS011;9326;49.468;11.008;2022-11-20T15:10:57;17.93;;;12.90;;
18399;SDS011;9326;49.468;11.008;2022-11-20T15:13:25;17.00;;;13.57;;
18399;SDS011;9326;49.468;11.008;2022-11-20T15:15:53;20.73;;;16.13;;
18399;SDS011;9326;49.468;11.008;2022-11-20T15:18:21;22.07;;;16.27;;
18399;SDS011;9326;49.468;11.008;2022-11-20T15:20:50;16.83;;;13.83;;
18399;SDS011;9326;49.468;11.008;2022-11-20T15:23:18;17.33;;;14.33;;
18399;SDS011;9326;49.468;11.008;2022-11-20T15:25:48;14.20;;;11.80;;
18399;SDS011;9326;49.468;11.008;2022-11-20T15:28:20;16.43;;;12.83;;
18399;SDS011;9326;49.468;11.008;2022-11-20T15:30:48;15.80;;;13.20;;
18399;SDS011;9326;49.468;11.008;2022-11-20T15:33:16;22.70;;;14.20;;
18399;SDS011;9326;49.468;11.008;2022-11-20T15:35:43;19.13;;;13.60;;
18399;SDS011;9326;49.468;11.008;2022-11-20T15:38:11;18.03;;;13.50;;
18399;SDS011;9326;49.468;11.008;2022-11-20T15:40:38;17.60;;;12.53;;
18399;SDS011;9326;49.468;11.008;2022-11-20T15:43:05;16.80;;;13.10;;
18399;SDS011;9326;49.468;11.008;2022-11-20T15:45:36;17.10;;;12.93;;
18399;SDS011;9326;49.468;11.008;2022-11-20T15:48:05;16.10;;;13.27;;
18399;SDS011;9326;49.468;11.008;2022-11-20T15:50:36;16.60;;;13.03;;
18399;SDS011;9326;49.468;11.008;2022-11-20T15:53:04;17.37;;;13.23;;
18399;SDS011;9326;49.468;11.008;2022-11-20T15:55:31;17.40;;;13.33;;
18399;SDS011;9326;49.468;11.008;2022-11-20T15:57:58;17.97;;;13.67;;
18399;SDS011;9326;49.468;11.008;2022-11-20T16:00:25;26.60;;;18.67;;
18399;SDS011;9326;49.468;11.008;2022-11-20T16:02:54;17.40;;;13.83;;
18399;SDS011;9326;49.468;11.008;2022-11-20T16:05:21;18.77;;;13.03;;
18399;SDS011;9326;49.468;11.008;2022-11-20T16:07:49;18.77;;;13.23;;
18399;SDS011;9326;49.468;11.008;2022-11-20T16:10:16;18.13;;;13.80;;
18399;SDS011;9326;49.468;11.008;2022-11-20T16:12:43;18.37;;;14.50;;
18399;SDS011;9326;49.468;11.008;2022-11-20T16:15:28;17.60;;;13.20;;
18399;SDS011;9326;49.468;11.008;2022-11-20T16:18:13;17.47;;;13.33;;
18399;SDS011;9326;49.468;11.008;2022-11-20T16:20:41;17.40;;;13.40;;
18399;SDS011;9326;49.468;11.008;2022-11-20T16:23:08;19.33;;;14.57;;
18399;SDS011;9326;49.468;11.008;2022-11-20T16:25:35;20.40;;;13.83;;
18399;SDS011;9326;49.468;11.008;2022-11-20T16:28:02;17.63;;;13.47;;
18399;SDS011;9326;49.468;11.008;2022-11-20T16:30:30;18.63;;;13.80;;
18399;SDS011;9326;49.468;11.008;2022-11-20T16:32:57;18.73;;;13.63;;
18399;SDS011;9326;49.468;11.008;2022-11-20T16:35:26;19.37;;;13.77;;
18399;SDS011;9326;49.468;11.008;2022-11-20T16:37:54;15.47;;;12.43;;
18399;SDS011;9326;49.468;11.008;2022-11-20T16:40:21;18.83;;;13.83;;
18399;SDS011;9326;49.468;11.008;2022-11-20T16:42:48;22.90;;;16.70;;
18399;SDS011;9326;49.468;11.008;2022-11-20T16:45:15;19.30;;;14.83;;
18399;SDS011;9326;49.468;11.008;2022-11-20T16:47:42;18.83;;;13.90;;
18399;SDS011;9326;49.468;11.008;2022-11-20T16:50:10;23.10;;;14.80;;
18399;SDS011;9326;49.468;11.008;2022-11-20T16:52:38;21.07;;;14.83;;
18399;SDS011;9326;49.468;11.008;2022-11-20T16:55:05;22.50;;;14.67;;
18399;SDS011;9326;49.468;11.008;2022-11-20T16:57:32;23.47;;;16.60;;
18399;SDS011;9326;49.468;11.008;2022-11-20T17:00:00;21.00;;;16.27;;
18399;SDS011;9326;49.468;11.008;2022-11-20T17:02:28;24.20;;;15.57;;
18399;SDS011;9326;49.468;11.008;2022-11-20T17:04:55;30.60;;;23.10;;
18399;SDS011;9326;49.468;11.008;2022-11-20T17:07:22;31.33;;;21.30;;
18399;SDS011;9326;49.468;11.008;2022-11-20T17:09:51;29.80;;;22.47;;
18399;SDS011;9326;49.468;11.008;2022-11-20T17:12:20;34.53;;;27.20;;
18399;SDS011;9326;49.468;11.008;2022-11-20T17:14:47;30.80;;;20.50;;
18399;SDS011;9326;49.468;11.008;2022-11-20T17:17:14;31.67;;;21.13;;
18399;SDS011;9326;49.468;11.008;2022-11-20T17:19:41;28.47;;;20.40;;
18399;SDS011;9326;49.468;11.008;2022-11-20T17:22:08;26.90;;;17.97;;
18399;SDS011;9326;49.468;11.008;2022-11-20T17:24:35;22.73;;;17.43;;
18399;SDS011;9326;49.468;11.008;2022-11-20T17:27:04;24.37;;;16.77;;
18399;SDS011;9326;49.468;11.008;2022-11-20T17:29:31;23.30;;;17.13;;
18399;SDS011;9326;49.468;11.008;2022-11-20T17:31:58;22.97;;;17.57;;
18399;SDS011;9326;49.468;11.008;2022-11-20T17:34:25;24.27;;;19.33;;
18399;SDS011;9326;49.468;11.008;2022-11-20T17:36:52;23.43;;;18.67;;
18399;SDS011;9326;49.468;11.008;2022-11-20T17:39:19;21.60;;;16.67;;
18399;SDS011;9326;49.468;11.008;2022-11-20T17:41:46;25.33;;;18.43;;
18399;SDS011;9326;49.468;11.008;2022-11-20T17:44:35;23.23;;;17.73;;
18399;SDS011;9326;49.468;11.008;2022-11-20T17:47:03;26.83;;;20.30;;
18399;SDS011;9326;49.468;11.008;2022-11-20T17:49:30;24.70;;;18.97;;
18399;SDS011;9326;49.468;11.008;2022-11-20T17:51:57;25.10;;;19.33;;
18399;SDS011;9326;49.468;11.008;2022-11-20T17:54:24;29.30;;;21.23;;
18399;SDS011;9326;49.468;11.008;2022-11-20T17:56:51;28.77;;;19.87;;
18399;SDS011;9326;49.468;11.008;2022-11-20T17:59:38;28.93;;;19.83;;
18399;SDS011;9326;49.468;11.008;2022-11-20T18:02:05;26.83;;;21.17;;
18399;SDS011;9326;49.468;11.008;2022-11-20T18:04:33;25.90;;;19.83;;
18399;SDS011;9326;49.468;11.008;2022-11-20T18:07:00;24.43;;;18.90;;
18399;SDS011;9326;49.468;11.008;2022-11-20T18:09:28;25.63;;;21.57;;
18399;SDS011;9326;49.468;11.008;2022-11-20T18:11:55;24.33;;;19.27;;
18399;SDS011;9326;49.468;11.008;2022-11-20T18:14:22;23.57;;;19.47;;
18399;SDS011;9326;49.468;11.008;2022-11-20T18:16:58;23.80;;;17.50;;
18399;SDS011;9326;49.468;11.008;2022-11-20T18:19:26;22.83;;;17.63;;
18399;SDS011;9326;49.468;11.008;2022-11-20T18:21:53;24.13;;;17.67;;
18399;SDS011;9326;49.468;11.008;2022-11-20T18:24:21;22.63;;;16.70;;
18399;SDS011;9326;49.468;11.008;2022-11-20T18:26:48;21.10;;;15.73;;
18399;SDS011;9326;49.468;11.008;2022-11-20T18:29:15;20.07;;;16.13;;
18399;SDS011;9326;49.468;11.008;2022-11-20T18:31:42;22.87;;;17.73;;
18399;SDS011;9326;49.468;11.008;2022-11-20T18:34:13;24.50;;;16.63;;
18399;SDS011;9326;49.468;11.008;2022-11-20T18:36:40;21.17;;;15.23;;
18399;SDS011;9326;49.468;11.008;2022-11-20T18:39:09;18.33;;;13.97;;
18399;SDS011;9326;49.468;11.008;2022-11-20T18:41:40;18.90;;;14.40;;
18399;SDS011;9326;49.468;11.008;2022-11-20T18:44:26;20.63;;;14.20;;
18399;SDS011;9326;49.468;11.008;2022-11-20T18:47:11;18.83;;;14.60;;
18399;SDS011;9326;49.468;11.008;2022-11-20T18:49:41;20.37;;;15.03;;
18399;SDS011;9326;49.468;11.008;2022-11-20T18:52:10;17.63;;;14.97;;
18399;SDS011;9326;49.468;11.008;2022-11-20T18:54:37;17.13;;;14.53;;
18399;SDS011;9326;49.468;11.008;2022-11-20T18:57:04;18.17;;;14.40;;
18399;SDS011;9326;49.468;11.008;2022-11-20T18:59:34;20.63;;;17.40;;
18399;SDS011;9326;49.468;11.008;2022-11-20T19:02:01;18.33;;;15.70;;
18399;SDS011;9326;49.468;11.008;2022-11-20T19:04:28;18.60;;;14.93;;
18399;SDS011;9326;49.468;11.008;2022-11-20T19:06:58;18.73;;;14.73;;
18399;SDS011;9326;49.468;11.008;2022-11-20T19:09:25;19.53;;;15.70;;
18399;SDS011;9326;49.468;11.008;2022-11-20T19:11:53;20.10;;;16.27;;
18399;SDS011;9326;49.468;11.008;2022-11-20T19:14:20;24.63;;;19.47;;
18399;SDS011;9326;49.468;11.008;2022-11-20T19:16:47;23.57;;;18.57;;
18399;SDS011;9326;49.468;11.008;2022-11-20T19:19:15;14.57;;;12.20;;
18399;SDS011;9326;49.468;11.008;2022-11-20T19:21:42;13.70;;;11.03;;
18399;SDS011;9326;49.468;11.008;2022-11-20T19:24:11;11.93;;;10.43;;
18399;SDS011;9326;49.468;11.008;2022-11-20T19:26:39;11.43;;;9.10;;
18399;SDS011;9326;49.468;11.008;2022-11-20T19:29:09;10.83;;;8.73;;
18399;SDS011;9326;49.468;11.008;2022-11-20T19:31:37;11.67;;;9.00;;
18399;SDS011;9326;49.468;11.008;2022-11-20T19:34:05;11.03;;;8.13;;
18399;SDS011;9326;49.468;11.008;2022-11-20T19:36:32;8.40;;;7.53;;
18399;SDS011;9326;49.468;11.008;2022-11-20T19:39:01;10.50;;;8.93;;